createdAt,value
2019-04-24T00:01:33.749Z,98435.38
2019-04-24T00:07:05.843Z,98429.70
2019-04-24T00:09:29.306Z,98431.26
2019-04-24T00:12:35.897Z,98437.47
2019-04-24T00:18:04.076Z,98435.94
2019-04-24T00:25:23.451Z,98438.43
2019-04-24T00:28:03.881Z,98439.02
2019-04-24T00:30:34.296Z,98439.87
2019-04-24T00:33:10.966Z,98443.67
2019-04-24T00:35:57.926Z,98443.05
2019-04-24T00:38:30.041Z,98440.46
2019-04-24T00:41:05.177Z,98443.58
2019-04-24T00:46:09.654Z,98424.48
2019-04-24T00:51:17.724Z,98419.86
2019-04-24T00:56:31.186Z,98412.24
2019-04-24T00:58:50.250Z,98419.07
2019-04-24T01:01:42.600Z,98413.30
2019-04-24T01:04:51.611Z,98415.19
2019-04-24T01:07:25.942Z,98411.89
2019-04-24T01:10:06.696Z,98418.20
2019-04-24T01:12:38.772Z,98415.84
2019-04-24T01:15:09.525Z,98411.50
2019-04-24T01:17:36.845Z,98421.71
2019-04-24T01:25:23.369Z,98410.66
2019-04-24T01:27:57.023Z,98412.52
2019-04-24T01:30:51.458Z,98407.28
2019-04-24T01:38:41.099Z,98419.94
2019-04-24T01:41:06.870Z,98423.75
2019-04-24T01:43:34.025Z,98430.86
2019-04-24T01:46:08.326Z,98439.72
2019-04-24T01:48:47.858Z,98440.97
2019-04-24T01:51:23.369Z,98444.39
2019-04-24T01:54:03.853Z,98465.22
2019-04-24T01:58:53.769Z,98457.67
2019-04-24T02:01:21.268Z,98467.78
2019-04-24T02:06:30.544Z,98460.17
2019-04-24T02:09:07.005Z,98463.17
2019-04-24T02:11:52.941Z,98464.41
2019-04-24T02:14:24.451Z,98463.19
2019-04-24T02:16:54.976Z,98463.39
2019-04-24T02:19:22.911Z,98462.56
2019-04-24T02:21:53.605Z,98456.48
2019-04-24T02:24:30.015Z,98460.09
2019-04-24T02:26:55.239Z,98463.30
2019-04-24T02:34:59.850Z,98454.73
2019-04-24T02:40:28.843Z,98460.42
2019-04-24T02:43:23.067Z,98450.51
2019-04-24T02:53:20.015Z,98451.11
2019-04-24T02:55:40.485Z,98455.77
2019-04-24T02:58:40.806Z,98453.61
2019-04-24T03:14:02.265Z,98456.38
2019-04-24T03:17:13.647Z,98464.34
2019-04-24T03:19:37.750Z,98466.80
2019-04-24T03:24:45.845Z,98461.94
2019-04-24T03:27:27.557Z,98462.26
2019-04-24T03:40:44.712Z,98449.98
2019-04-24T03:45:18.139Z,98463.38
2019-04-24T03:56:14.289Z,98467.78
2019-04-24T03:59:03.293Z,98469.52
2019-04-24T04:02:10.797Z,98474.97
2019-04-24T04:14:52.410Z,98481.50
2019-04-24T04:22:49.408Z,98500.56
2019-04-24T04:25:34.926Z,98505.78
2019-04-24T04:36:41.708Z,98509.20
2019-04-24T04:38:56.223Z,98517.71
2019-04-24T04:41:54.725Z,98525.97
2019-04-24T04:44:26.601Z,98532.25
2019-04-24T04:47:12.079Z,98528.90
2019-04-24T04:50:14.085Z,98528.20
2019-04-24T04:52:24.064Z,98530.87
2019-04-24T05:07:45.479Z,98539.72
2019-04-24T05:10:19.643Z,98551.89
2019-04-24T05:15:24.114Z,98548.20
2019-04-24T05:20:22.711Z,98546.74
2019-04-24T05:22:40.740Z,98551.98
2019-04-24T05:28:28.510Z,98546.42
2019-04-24T05:35:53.178Z,98551.57
2019-04-24T05:39:16.057Z,98554.89
2019-04-24T05:41:25.075Z,98556.93
2019-04-24T05:43:58.654Z,98547.55
2019-04-24T05:46:37.757Z,98533.95
2019-04-24T05:49:05.453Z,98535.61
2019-04-24T05:51:40.832Z,98533.55
2019-04-24T06:04:58.219Z,98572.56
2019-04-24T06:08:07.040Z,98570.81
2019-04-24T06:10:39.814Z,98586.90
2019-04-24T06:16:22.680Z,98580.95
2019-04-24T06:29:34.273Z,98589.52
2019-04-24T06:32:27.278Z,98593.44
2019-04-24T06:34:57.264Z,98594.16
2019-04-24T06:40:21.023Z,98590.39
2019-04-24T06:42:57.799Z,98592.05
2019-04-24T06:50:52.514Z,98607.97
2019-04-24T06:58:06.630Z,98594.98
2019-04-24T07:01:00.439Z,98602.27
2019-04-24T07:03:59.377Z,98597.57
2019-04-24T07:09:17.897Z,98595.03
2019-04-24T07:11:53.816Z,98591.66
2019-04-24T07:14:34.101Z,98592.38
2019-04-24T07:17:20.695Z,98593.39
2019-04-24T07:19:51.042Z,98592.66
2019-04-24T07:24:53.728Z,98603.19
2019-04-24T07:27:30.059Z,98610.83
2019-04-24T07:32:58.237Z,98613.00
2019-04-24T07:35:49.554Z,98619.08
2019-04-24T07:46:18.764Z,98616.45
2019-04-24T07:49:04.081Z,98618.41
2019-04-24T07:51:47.631Z,98619.17
2019-04-24T07:54:05.351Z,98617.05
2019-04-24T08:04:59.611Z,98617.91
2019-04-24T08:10:40.202Z,98616.17
2019-04-24T08:13:38.784Z,98625.99
2019-04-24T08:15:52.955Z,98624.14
2019-04-24T08:18:26.808Z,98630.63
2019-04-24T08:20:57.518Z,98639.27
2019-04-24T08:28:49.125Z,98635.38
2019-04-24T08:34:20.349Z,98635.51
2019-04-24T08:36:29.620Z,98633.10
2019-04-24T08:42:22.388Z,98630.07
2019-04-24T08:44:56.866Z,98630.07
2019-04-24T08:47:25.350Z,98634.28
2019-04-24T08:52:48.456Z,98631.61
2019-04-24T08:55:05.277Z,98633.33
2019-04-24T08:57:53.943Z,98637.16
2019-04-24T09:03:05.605Z,98635.17
2019-04-24T09:05:46.136Z,98641.06
2019-04-24T09:11:10.088Z,98639.59
2019-04-24T09:16:37.158Z,98640.42
2019-04-24T09:21:38.505Z,98630.08
2019-04-24T09:30:20.259Z,98629.36
2019-04-24T09:36:01.099Z,98632.34
2019-04-24T09:38:30.228Z,98636.34
2019-04-24T09:41:18.521Z,98629.27
2019-04-24T09:43:51.137Z,98632.98
2019-04-24T09:48:55.706Z,98626.14
2019-04-24T09:51:23.343Z,98634.66
2019-04-24T09:54:06.473Z,98632.95
2019-04-24T09:57:06.472Z,98630.87
2019-04-24T10:02:13.010Z,98640.88
2019-04-24T10:05:00.727Z,98638.80
2019-04-24T10:07:35.797Z,98642.97
2019-04-24T10:12:59.017Z,98634.16
2019-04-24T10:15:40.758Z,98630.36
2019-04-24T10:20:38.290Z,98640.76
2019-04-24T10:23:40.585Z,98641.73
2019-04-24T10:26:06.321Z,98649.88
2019-04-24T10:34:24.145Z,98655.08
2019-04-24T10:37:08.874Z,98655.34
2019-04-24T10:42:52.484Z,98649.23
2019-04-24T10:45:28.338Z,98650.34
2019-04-24T10:50:56.429Z,98645.70
2019-04-24T10:53:41.862Z,98641.72
2019-04-24T11:02:00.231Z,98642.86
2019-04-24T11:04:37.308Z,98645.66
2019-04-24T11:10:20.661Z,98636.97
2019-04-24T11:15:42.463Z,98640.28
2019-04-24T11:18:36.801Z,98642.20
2019-04-24T11:21:48.091Z,98643.31
2019-04-24T11:24:04.563Z,98645.79
2019-04-24T11:26:25.363Z,98642.80
2019-04-24T11:32:10.556Z,98649.09
2019-04-24T11:37:47.080Z,98648.01
2019-04-24T11:42:57.756Z,98650.39
2019-04-24T11:45:47.703Z,98652.57
2019-04-24T11:48:57.481Z,98646.04
2019-04-24T11:56:47.591Z,98657.61
2019-04-24T11:58:55.925Z,98648.91
2019-04-24T12:02:06.206Z,98648.50
2019-04-24T12:07:09.894Z,98643.94
2019-04-24T12:09:50.867Z,98637.33
2019-04-24T12:12:14.583Z,98642.22
2019-04-24T12:15:01.694Z,98637.24
2019-04-24T12:17:48.371Z,98636.34
2019-04-24T12:20:37.907Z,98634.62
2019-04-24T12:22:50.819Z,98636.58
2019-04-24T12:27:59.787Z,98633.81
2019-04-24T12:30:53.517Z,98632.72
2019-04-24T12:33:22.267Z,98641.92
2019-04-24T12:35:56.552Z,98633.17
2019-04-24T12:38:35.991Z,98626.71
2019-04-24T12:41:18.587Z,98624.39
2019-04-24T12:51:41.096Z,98614.80
2019-04-24T12:54:12.602Z,98622.16
2019-04-24T13:02:33.238Z,98606.23
2019-04-24T13:05:00.885Z,98608.94
2019-04-24T13:07:43.541Z,98607.50
2019-04-24T13:10:14.367Z,98607.69
2019-04-24T13:18:08.840Z,98598.19
2019-04-24T13:20:11.730Z,98602.73
2019-04-24T13:22:47.281Z,98604.94
2019-04-24T13:25:48.405Z,98597.77
2019-04-24T13:28:40.550Z,98600.27
2019-04-24T13:31:19.058Z,98595.05
2019-04-24T13:33:43.069Z,98593.11
2019-04-24T13:41:16.972Z,98573.16
2019-04-24T13:44:05.831Z,98573.20
2019-04-24T13:46:24.977Z,98569.22
2019-04-24T13:49:13.893Z,98569.09
2019-04-24T13:51:33.060Z,98558.78
2019-04-24T13:54:08.905Z,98553.49
2019-04-24T13:56:33.018Z,98547.67
2019-04-24T13:59:03.242Z,98542.87
2019-04-24T14:01:48.250Z,98545.80
2019-04-24T14:04:15.867Z,98542.94
2019-04-24T14:06:54.592Z,98535.41
2019-04-24T14:09:34.248Z,98537.70
2019-04-24T14:14:35.525Z,98531.11
2019-04-24T14:16:53.361Z,98533.01
2019-04-24T14:22:13.619Z,98534.52
2019-04-24T14:24:59.876Z,98537.20
2019-04-24T14:27:35.772Z,98532.33
2019-04-24T14:29:56.843Z,98531.11
2019-04-24T14:32:25.767Z,98525.20
2019-04-24T14:35:08.125Z,98522.87
2019-04-24T14:37:33.082Z,98531.09
2019-04-24T14:40:16.434Z,98521.93
2019-04-24T14:42:47.442Z,98520.48
2019-04-24T14:45:29.897Z,98513.50
2019-04-24T14:47:45.665Z,98520.86
2019-04-24T14:53:03.254Z,98514.91
2019-04-24T14:58:10.336Z,98509.13
2019-04-24T15:00:32.883Z,98509.98
2019-04-24T15:03:16.792Z,98521.91
2019-04-24T15:08:15.539Z,98515.98
2019-04-24T15:10:45.586Z,98519.61
2019-04-24T15:13:19.962Z,98519.10
2019-04-24T15:16:19.252Z,98514.03
2019-04-24T15:18:20.168Z,98516.78
2019-04-24T15:20:55.558Z,98517.74
2019-04-24T15:23:34.848Z,98513.71
2019-04-24T15:26:15.011Z,98515.69
2019-04-24T15:28:46.673Z,98514.16
2019-04-24T15:31:01.816Z,98511.41
2019-04-24T15:33:50.240Z,98504.31
2019-04-24T15:43:36.646Z,98495.78
2019-04-24T15:46:16.718Z,98497.49
2019-04-24T15:51:23.607Z,98490.70
2019-04-24T15:53:26.629Z,98494.31
2019-04-24T15:55:58.043Z,98488.56
2019-04-24T15:58:38.444Z,98492.45
2019-04-24T16:04:24.889Z,98492.72
2019-04-24T16:06:21.760Z,98499.58
2019-04-24T16:08:53.546Z,98498.81
2019-04-24T16:11:23.974Z,98500.19
2019-04-24T16:14:02.532Z,98498.56
2019-04-24T16:16:54.981Z,98489.88
2019-04-24T16:22:00.147Z,98487.14
2019-04-24T16:29:28.720Z,98476.30
2019-04-24T16:32:30.606Z,98474.43
2019-04-24T16:34:40.574Z,98475.83
2019-04-24T16:37:16.945Z,98468.48
2019-04-24T16:40:27.717Z,98476.15
2019-04-24T16:43:09.657Z,98478.33
2019-04-24T16:55:37.101Z,98491.75
2019-04-24T16:58:13.325Z,98489.05
2019-04-24T17:01:06.811Z,98492.86
2019-04-24T17:03:22.517Z,98502.45
2019-04-24T17:06:02.101Z,98504.91
2019-04-24T17:08:30.159Z,98498.90
2019-04-24T17:11:05.996Z,98493.48
2019-04-24T17:13:38.291Z,98496.45
2019-04-24T17:16:06.877Z,98488.84
2019-04-24T17:18:41.504Z,98495.38
2019-04-24T17:21:35.297Z,98495.40
2019-04-24T17:26:14.166Z,98490.48
2019-04-24T17:31:17.217Z,98488.31
2019-04-24T17:33:51.648Z,98489.95
2019-04-24T17:38:36.368Z,98485.83
2019-04-24T17:41:12.690Z,98482.81
2019-04-24T17:44:15.724Z,98491.52
2019-04-24T17:46:46.378Z,98486.63
2019-04-24T17:49:16.330Z,98480.08
2019-04-24T17:51:44.100Z,98481.69
2019-04-24T17:54:19.563Z,98486.30
2019-04-24T17:56:56.240Z,98487.09
2019-04-24T17:58:54.638Z,98490.34
2019-04-24T18:01:26.939Z,98488.42
2019-04-24T18:03:57.729Z,98492.98
2019-04-24T18:06:28.161Z,98492.15
2019-04-24T18:08:59.418Z,98487.78
2019-04-24T18:11:29.861Z,98484.20
2019-04-24T18:14:55.511Z,98497.23
2019-04-24T18:17:26.225Z,98495.30
2019-04-24T18:19:56.656Z,98494.16
2019-04-24T18:22:36.459Z,98498.20
2019-04-24T18:25:13.093Z,98490.80
2019-04-24T18:27:44.449Z,98501.64
2019-04-24T18:30:17.076Z,98501.33
2019-04-24T18:32:47.909Z,98509.45
2019-04-24T18:35:21.733Z,98515.93
2019-04-24T18:37:54.058Z,98520.56
2019-04-24T18:40:24.712Z,98516.98
2019-04-24T18:42:57.533Z,98522.42
2019-04-24T18:45:28.287Z,98516.93
2019-04-24T18:48:02.023Z,98515.25
2019-04-24T18:50:33.048Z,98513.86
2019-04-24T18:53:03.796Z,98513.22
2019-04-24T18:55:34.573Z,98512.64
2019-04-24T18:58:07.523Z,98508.23
2019-04-24T19:00:38.364Z,98511.48
2019-04-24T19:03:09.202Z,98504.67
2019-04-24T19:05:41.491Z,98507.36
2019-04-24T19:08:14.079Z,98508.95
2019-04-24T19:10:46.831Z,98501.31
2019-04-24T19:13:17.715Z,98504.28
2019-04-24T19:15:48.266Z,98500.71
2019-04-24T19:18:20.199Z,98500.42
2019-04-24T19:20:52.073Z,98498.20
2019-04-24T19:23:23.880Z,98495.23
2019-04-24T19:25:55.698Z,98499.30
2019-04-24T19:28:26.151Z,98496.85
2019-04-24T19:31:00.276Z,98497.61
2019-04-24T19:33:30.708Z,98492.98
2019-04-24T19:36:01.575Z,98498.94
2019-04-24T19:38:32.621Z,98498.07
2019-04-24T19:41:03.031Z,98499.40
2019-04-24T19:43:34.052Z,98494.17
2019-04-24T19:46:04.942Z,98500.32
2019-04-24T19:48:36.828Z,98494.32
2019-04-24T19:51:07.270Z,98491.48
2019-04-24T19:53:37.762Z,98495.03
2019-04-24T19:56:11.791Z,98497.37
2019-04-24T19:58:42.820Z,98499.81
2019-04-24T20:01:15.624Z,98499.23
2019-04-24T20:03:46.131Z,98486.69
2019-04-24T20:06:17.419Z,98488.23
2019-04-24T20:08:48.470Z,98494.39
2019-04-24T20:11:30.940Z,98493.52
2019-04-24T20:14:02.862Z,98495.35
2019-04-24T20:16:33.729Z,98501.55
2019-04-24T20:19:04.807Z,98497.41
2019-04-24T20:21:35.723Z,98496.86
2019-04-24T20:24:07.178Z,98496.53
2019-04-24T20:26:37.985Z,98504.41
2019-04-24T20:29:08.738Z,98512.53
2019-04-24T20:31:39.578Z,98514.65
2019-04-24T20:34:11.275Z,98510.77
2019-04-24T20:36:41.853Z,98513.33
2019-04-24T20:39:13.105Z,98507.91
2019-04-24T20:41:44.060Z,98505.30
2019-04-24T20:44:15.781Z,98498.23
2019-04-24T20:46:46.761Z,98498.16
2019-04-24T20:49:18.032Z,98495.45
2019-04-24T20:51:48.950Z,98500.28
2019-04-24T20:54:19.445Z,98495.88
2019-04-24T20:56:51.742Z,98513.81
2019-04-24T20:59:23.382Z,98513.81
2019-04-24T21:01:55.106Z,98534.55
2019-04-24T21:04:25.917Z,98572.61
2019-04-24T21:07:15.431Z,98596.17
2019-04-24T21:09:52.067Z,98602.69
2019-04-24T21:12:23.117Z,98612.30
2019-04-24T21:15:11.355Z,98615.61
2019-04-24T21:17:42.556Z,98627.64
2019-04-24T21:20:14.478Z,98656.03
2019-04-24T21:22:45.275Z,98665.60
2019-04-24T21:25:16.238Z,98678.58
2019-04-24T21:27:47.057Z,98689.22
2019-04-24T21:30:17.888Z,98687.70
2019-04-24T21:32:48.373Z,98714.72
2019-04-24T21:35:18.802Z,98753.59
2019-04-24T21:37:49.286Z,98754.47
2019-04-24T21:40:21.356Z,98762.17
2019-04-24T21:42:51.921Z,98768.92
2019-04-24T21:45:23.395Z,98780.70
2019-04-24T21:47:53.985Z,98808.33
2019-04-24T21:50:24.416Z,98836.50
2019-04-24T21:52:55.240Z,98859.39
2019-04-24T21:55:25.712Z,98884.95
2019-04-24T21:58:03.567Z,98934.17
2019-04-24T22:00:58.047Z,99007.76
2019-04-24T22:03:49.864Z,99046.83
2019-04-24T22:06:26.131Z,99070.52
2019-04-24T22:08:56.667Z,99075.11
2019-04-24T22:11:28.459Z,99051.03
2019-04-24T22:13:58.917Z,99046.74
2019-04-24T22:16:30.917Z,99053.61
2019-04-24T22:19:01.456Z,99037.16
2019-04-24T22:21:34.027Z,99034.52
2019-04-24T22:24:25.960Z,99028.52
2019-04-24T22:26:56.545Z,99017.33
2019-04-24T22:29:26.984Z,99005.59
2019-04-24T22:32:12.049Z,98976.36
2019-04-24T22:34:46.821Z,98926.22
2019-04-24T22:37:17.304Z,98905.46
2019-04-24T22:39:54.181Z,98887.14
2019-04-24T22:42:26.030Z,98890.25
2019-04-24T22:44:56.812Z,98951.52
2019-04-24T22:47:28.497Z,99027.38
2019-04-24T22:49:58.991Z,99009.27
2019-04-24T22:52:31.197Z,98974.78
2019-04-24T22:55:02.120Z,98942.86
2019-04-24T22:57:33.697Z,98920.45
2019-04-24T23:00:05.708Z,98909.06
2019-04-24T23:02:36.736Z,98891.20
2019-04-24T23:05:07.970Z,98878.36
2019-04-24T23:07:38.764Z,98913.73
2019-04-24T23:10:09.287Z,98937.58
2019-04-24T23:12:39.768Z,98969.08
2019-04-24T23:15:10.668Z,98978.56
2019-04-24T23:17:41.097Z,98960.12
2019-04-24T23:20:12.518Z,98977.22
2019-04-24T23:23:11.324Z,98999.13
2019-04-24T23:26:04.169Z,99011.02
2019-04-24T23:28:52.215Z,99027.12
2019-04-24T23:31:33.722Z,99033.06
2019-04-24T23:34:04.624Z,99030.52
2019-04-24T23:36:35.392Z,99029.38
2019-04-24T23:39:07.776Z,99041.48
2019-04-24T23:41:38.596Z,99052.02
2019-04-24T23:44:09.024Z,99071.94
2019-04-24T23:46:39.501Z,99082.84
2019-04-24T23:49:10.268Z,99080.52
2019-04-24T23:51:41.521Z,99093.12
2019-04-24T23:54:12.360Z,99097.76
2019-04-24T23:56:43.999Z,99102.55
2019-04-24T23:59:14.956Z,99119.25
